METAR|ÜBERSETZT|TAF
EDHK 310520Z 08007KT 9999 SCT005 15/15 Q1010
Login|Impressum|Kontakt



Anmeldung für Mitglieder

Bitte melden Sie sich an um den internen Bereich zu nutzen.
Benutzername:
Password: